createdAt,value
2019-01-19T00:02:27.841Z,35.70
2019-01-19T00:05:02.352Z,38.53
2019-01-19T00:07:46.047Z,41.30
2019-01-19T00:10:35.837Z,35.92
2019-01-19T00:13:16.069Z,39.42
2019-01-19T00:15:47.767Z,46.63
2019-01-19T00:18:42.113Z,51.40
2019-01-19T00:21:25.753Z,46.80
2019-01-19T00:23:57.333Z,43.90
2019-01-19T00:26:50.188Z,41.65
2019-01-19T00:29:41.690Z,45.65
2019-01-19T00:32:42.071Z,59.03
2019-01-19T00:35:25.390Z,96.05
2019-01-19T00:37:56.917Z,154.57
2019-01-19T00:40:48.123Z,212.40
2019-01-19T00:43:17.144Z,131.52
2019-01-19T00:45:57.863Z,123.65
2019-01-19T00:48:32.428Z,123.72
2019-01-19T00:51:20.931Z,118.20
2019-01-19T00:54:13.971Z,148.32
2019-01-19T00:57:09.833Z,91.28
2019-01-19T00:59:41.087Z,70.05
2019-01-19T01:02:19.171Z,67.22
2019-01-19T01:05:06.128Z,59.77
2019-01-19T01:07:43.363Z,54.98
2019-01-19T01:10:14.967Z,58.92
2019-01-19T01:12:52.143Z,54.93
2019-01-19T01:15:32.476Z,49.18
2019-01-19T01:18:04.101Z,54.80
2019-01-19T01:20:44.273Z,56.47
2019-01-19T01:23:43.179Z,50.07
2019-01-19T01:26:26.612Z,43.73
2019-01-19T01:29:00.973Z,52.35
2019-01-19T01:31:41.398Z,42.33
2019-01-19T01:34:18.803Z,42.05
2019-01-19T01:37:03.714Z,41.83
2019-01-19T01:39:38.105Z,45.10
2019-01-19T01:42:12.458Z,46.60
2019-01-19T01:44:53.205Z,52.83
2019-01-19T01:47:33.663Z,44.53
2019-01-19T01:50:08.098Z,39.90
2019-01-19T01:52:57.483Z,46.67
2019-01-19T01:55:29.065Z,44.73
2019-01-19T01:58:00.587Z,41.07
2019-01-19T02:00:39.294Z,42.20
2019-01-19T02:03:19.950Z,45.43
2019-01-19T02:06:06.557Z,47.47
2019-01-19T02:09:09.057Z,42.73
2019-01-19T02:11:57.427Z,38.63
2019-01-19T02:14:28.952Z,47.57
2019-01-19T02:17:03.560Z,44.17
2019-01-19T02:19:47.216Z,37.77
2019-01-19T02:22:27.681Z,35.90
2019-01-19T02:25:05.137Z,39.17
2019-01-19T02:28:02.327Z,34.03
2019-01-19T02:30:53.094Z,42.83
2019-01-19T02:33:50.386Z,36.30
2019-01-19T02:36:30.785Z,37.83
2019-01-19T02:39:12.231Z,32.93
2019-01-19T02:42:00.200Z,36.00
2019-01-19T02:44:49.466Z,44.67
2019-01-19T02:47:27.176Z,38.03
2019-01-19T02:50:22.341Z,46.90
2019-01-19T02:53:20.912Z,42.37
2019-01-19T02:56:01.458Z,34.03
2019-01-19T02:58:58.354Z,37.57
2019-01-19T03:01:35.038Z,46.73
2019-01-19T03:04:24.708Z,56.63
2019-01-19T03:07:14.501Z,41.43
2019-01-19T03:10:02.358Z,35.13
2019-01-19T03:12:54.882Z,40.98
2019-01-19T03:15:35.321Z,39.03
2019-01-19T03:18:18.709Z,67.27
2019-01-19T03:21:02.826Z,82.07
2019-01-19T03:23:40.526Z,68.13
2019-01-19T03:26:21.190Z,50.63
2019-01-19T03:29:15.598Z,43.13
2019-01-19T03:31:54.040Z,55.47
2019-01-19T03:34:42.169Z,87.97
2019-01-19T03:37:29.169Z,69.67
2019-01-19T03:40:06.893Z,42.37
2019-01-19T03:42:47.180Z,37.45
2019-01-19T03:45:35.360Z,32.28
2019-01-19T03:48:19.035Z,38.47
2019-01-19T03:51:07.003Z,60.80
2019-01-19T03:53:42.429Z,62.93
2019-01-19T03:56:17.213Z,72.17
2019-01-19T03:59:07.162Z,59.60
2019-01-19T04:01:47.441Z,45.47
2019-01-19T04:04:32.751Z,35.15
2019-01-19T04:07:07.059Z,36.70
2019-01-19T04:09:44.452Z,36.58
2019-01-19T04:12:27.958Z,41.40
2019-01-19T04:15:14.885Z,39.20
2019-01-19T04:17:52.529Z,54.75
2019-01-19T04:20:46.882Z,49.48
2019-01-19T04:23:15.454Z,49.40
2019-01-19T04:25:46.990Z,48.98
2019-01-19T04:28:15.907Z,44.95
2019-01-19T04:30:44.439Z,44.03
2019-01-19T04:33:12.997Z,49.48
2019-01-19T04:35:41.459Z,54.10
2019-01-19T04:38:10.061Z,43.02
2019-01-19T04:40:38.533Z,45.30
2019-01-19T04:43:06.999Z,44.47
2019-01-19T04:45:35.531Z,61.60
2019-01-19T04:48:04.459Z,63.58
2019-01-19T04:50:32.968Z,58.90
2019-01-19T04:53:01.571Z,65.20
2019-01-19T04:55:31.085Z,57.23
2019-01-19T04:57:59.554Z,45.00
2019-01-19T05:00:28.220Z,38.87
2019-01-19T05:02:56.762Z,36.63
2019-01-19T05:05:28.103Z,37.33
2019-01-19T05:07:56.709Z,35.10
2019-01-19T05:10:25.238Z,32.93
2019-01-19T05:12:53.804Z,35.88
2019-01-19T05:15:22.395Z,41.43
2019-01-19T05:17:51.010Z,41.50
2019-01-19T05:20:19.569Z,40.55
2019-01-19T05:22:49.272Z,44.27
2019-01-19T05:25:17.779Z,44.77
2019-01-19T05:27:46.242Z,41.83
2019-01-19T05:30:17.232Z,42.73
2019-01-19T05:32:47.901Z,39.18
2019-01-19T05:35:16.844Z,42.27
2019-01-19T05:37:46.243Z,42.83
2019-01-19T05:40:14.885Z,47.48
2019-01-19T05:42:43.521Z,47.38
2019-01-19T05:45:14.205Z,49.13
2019-01-19T05:47:43.771Z,52.08
2019-01-19T05:50:17.503Z,54.93
2019-01-19T05:52:46.071Z,55.73
2019-01-19T05:55:14.592Z,62.35
2019-01-19T05:57:43.129Z,68.37
2019-01-19T06:00:20.898Z,62.40
2019-01-19T06:02:49.479Z,53.83
2019-01-19T06:05:18.293Z,51.83
2019-01-19T06:07:48.840Z,50.12
2019-01-19T06:10:18.002Z,47.85
2019-01-19T06:12:46.573Z,40.17
2019-01-19T06:15:16.768Z,47.67
2019-01-19T06:17:45.381Z,41.95
2019-01-19T06:20:16.013Z,40.90
2019-01-19T06:22:44.811Z,43.70
2019-01-19T06:25:16.810Z,41.35
2019-01-19T06:27:45.525Z,45.38
2019-01-19T06:30:19.572Z,41.80
2019-01-19T06:32:48.214Z,47.93
2019-01-19T06:35:16.953Z,49.98
2019-01-19T06:37:45.630Z,39.27
2019-01-19T06:40:16.619Z,39.73
2019-01-19T06:42:45.960Z,37.85
2019-01-19T06:45:22.796Z,46.33
2019-01-19T06:47:51.383Z,48.28
2019-01-19T06:50:20.002Z,46.70
2019-01-19T06:52:48.606Z,47.35
2019-01-19T06:55:23.214Z,49.13
2019-01-19T06:57:51.862Z,47.43
2019-01-19T07:00:20.496Z,42.65
2019-01-19T07:02:49.950Z,42.00
2019-01-19T07:05:18.575Z,47.65
2019-01-19T07:07:47.201Z,45.38
2019-01-19T07:10:20.112Z,47.48
2019-01-19T07:12:49.584Z,63.03
2019-01-19T07:15:18.264Z,61.25
2019-01-19T07:17:46.825Z,76.27
2019-01-19T07:20:24.271Z,70.90
2019-01-19T07:22:52.904Z,69.55
2019-01-19T07:25:21.515Z,85.13
2019-01-19T07:27:50.045Z,78.93
2019-01-19T07:30:18.861Z,79.57
2019-01-19T07:32:47.876Z,70.67
2019-01-19T07:35:17.296Z,77.57
2019-01-19T07:37:45.769Z,79.07
2019-01-19T07:40:17.127Z,81.23
2019-01-19T07:42:46.568Z,84.93
2019-01-19T07:45:16.234Z,86.93
2019-01-19T07:47:45.354Z,89.17
2019-01-19T07:50:18.578Z,95.50
2019-01-19T07:52:47.116Z,91.87
2019-01-19T07:55:17.451Z,101.70
2019-01-19T07:57:47.160Z,89.37
2019-01-19T08:00:18.459Z,88.20
2019-01-19T08:02:47.010Z,81.63
2019-01-19T08:05:16.674Z,89.83
2019-01-19T08:07:45.528Z,160.00
2019-01-19T08:10:20.516Z,261.87
2019-01-19T08:12:50.153Z,279.67
2019-01-19T08:15:26.838Z,291.00
2019-01-19T08:17:55.639Z,268.90
2019-01-19T08:20:24.463Z,255.30
2019-01-19T08:22:53.022Z,223.17
2019-01-19T08:25:21.621Z,204.70
2019-01-19T08:27:50.109Z,149.67
2019-01-19T08:30:20.912Z,143.33
2019-01-19T08:32:50.278Z,127.67
2019-01-19T08:35:19.100Z,89.00
2019-01-19T08:37:48.507Z,70.70
2019-01-19T08:40:22.879Z,57.97
2019-01-19T08:42:59.054Z,63.53
2019-01-19T08:45:27.542Z,68.40
2019-01-19T08:47:56.261Z,78.43
2019-01-19T08:50:24.804Z,85.83
2019-01-19T08:52:53.352Z,87.67
2019-01-19T08:55:21.944Z,84.30
2019-01-19T08:57:50.495Z,85.60
2019-01-19T09:00:20.412Z,67.93
2019-01-19T09:02:49.124Z,67.20
2019-01-19T09:05:18.471Z,54.73
2019-01-19T09:07:47.021Z,47.60
2019-01-19T09:10:17.147Z,48.93
2019-01-19T09:12:48.004Z,45.87
2019-01-19T09:15:19.260Z,39.97
2019-01-19T09:17:47.797Z,45.40
2019-01-19T09:20:17.947Z,44.80
2019-01-19T09:22:48.713Z,39.50
2019-01-19T09:25:17.714Z,41.83
2019-01-19T09:27:47.372Z,42.93
2019-01-19T09:30:18.778Z,38.87
2019-01-19T09:32:47.953Z,47.70
2019-01-19T09:35:17.743Z,61.17
2019-01-19T09:37:46.964Z,71.17
2019-01-19T09:40:18.853Z,73.33
2019-01-19T09:42:47.481Z,67.30
2019-01-19T09:45:17.862Z,66.90
2019-01-19T09:47:46.634Z,31.13
2019-01-19T09:50:17.026Z,23.07
2019-01-19T09:52:46.710Z,21.70
2019-01-19T09:55:15.440Z,21.27
2019-01-19T09:57:43.928Z,19.93
2019-01-19T10:00:15.282Z,24.93
2019-01-19T10:02:43.923Z,25.07
2019-01-19T10:05:15.589Z,21.73
2019-01-19T10:07:48.466Z,22.83
2019-01-19T10:10:15.006Z,22.30
2019-01-19T10:12:43.539Z,22.27
2019-01-19T10:15:14.741Z,22.83
2019-01-19T10:17:44.328Z,21.93
2019-01-19T10:20:29.775Z,26.00
2019-01-19T10:22:58.368Z,24.77
2019-01-19T10:25:27.007Z,21.30
2019-01-19T10:27:55.561Z,26.60
2019-01-19T10:30:33.735Z,27.10
2019-01-19T10:33:02.276Z,24.87
2019-01-19T10:35:30.810Z,24.80
2019-01-19T10:37:59.434Z,23.00
2019-01-19T10:40:27.902Z,21.40
2019-01-19T10:42:56.372Z,22.30
2019-01-19T10:45:45.693Z,25.00
2019-01-19T10:48:14.234Z,21.20
2019-01-19T10:50:42.708Z,21.97
2019-01-19T10:53:11.235Z,22.80
2019-01-19T10:55:39.801Z,21.00
2019-01-19T10:58:08.384Z,24.50
2019-01-19T11:00:36.982Z,20.50
2019-01-19T11:03:05.660Z,21.47
2019-01-19T11:05:34.262Z,20.43
2019-01-19T11:08:04.222Z,20.83
2019-01-19T11:10:36.198Z,16.90
2019-01-19T11:13:04.916Z,16.93
2019-01-19T11:15:33.569Z,19.23
2019-01-19T11:18:02.029Z,21.33
2019-01-19T11:20:32.385Z,19.93
2019-01-19T11:23:02.418Z,22.30
2019-01-19T11:25:31.221Z,22.77
2019-01-19T11:27:59.907Z,17.90
2019-01-19T11:30:33.183Z,22.57
2019-01-19T11:33:01.750Z,25.23
2019-01-19T11:35:30.974Z,23.67
2019-01-19T11:37:59.453Z,24.63
2019-01-19T11:40:33.708Z,25.68
2019-01-19T11:43:02.323Z,20.70
2019-01-19T11:45:30.986Z,22.47
2019-01-19T11:47:59.461Z,29.57
2019-01-19T11:50:28.099Z,20.87
2019-01-19T11:52:56.711Z,25.37
2019-01-19T11:55:25.245Z,29.27
2019-01-19T11:58:00.607Z,27.87
2019-01-19T12:00:34.551Z,24.13
2019-01-19T12:03:05.716Z,23.67
2019-01-19T12:05:34.257Z,26.67
2019-01-19T12:08:02.799Z,25.30
2019-01-19T12:10:32.035Z,22.47
2019-01-19T12:13:00.751Z,23.57
2019-01-19T12:15:29.619Z,26.83
2019-01-19T12:17:59.340Z,24.97
2019-01-19T12:20:30.487Z,27.20
2019-01-19T12:22:59.221Z,24.07
2019-01-19T12:25:27.763Z,21.10
2019-01-19T12:27:56.291Z,24.53
2019-01-19T12:30:30.523Z,22.57
2019-01-19T12:32:59.129Z,26.27
2019-01-19T12:35:28.156Z,29.97
2019-01-19T12:37:57.626Z,49.27
2019-01-19T12:40:28.360Z,71.93
2019-01-19T12:42:59.663Z,87.77
2019-01-19T12:45:33.821Z,32.73
2019-01-19T12:48:02.404Z,47.57
2019-01-19T12:50:31.040Z,59.40
2019-01-19T12:52:59.773Z,45.70
2019-01-19T12:55:28.239Z,38.27
2019-01-19T12:57:56.715Z,36.37
2019-01-19T13:00:29.014Z,35.47
2019-01-19T13:02:57.850Z,37.80
2019-01-19T13:05:35.535Z,35.93
2019-01-19T13:08:06.835Z,40.97
2019-01-19T13:10:50.557Z,38.80
2019-01-19T13:13:19.104Z,21.83
2019-01-19T13:15:50.681Z,11.93
2019-01-19T13:18:46.673Z,10.37
2019-01-19T13:21:42.618Z,11.40
2019-01-19T13:24:26.736Z,24.20
2019-01-19T13:27:14.721Z,18.60
2019-01-19T13:29:55.090Z,28.03
2019-01-19T13:32:50.942Z,25.10
2019-01-19T13:35:42.242Z,25.20
2019-01-19T13:38:28.692Z,14.03
2019-01-19T13:41:21.759Z,13.47
2019-01-19T13:44:02.527Z,9.63
2019-01-19T13:46:54.023Z,12.27
2019-01-19T13:49:48.442Z,10.20
2019-01-19T13:52:20.051Z,18.10
2019-01-19T13:55:09.797Z,17.13
2019-01-19T13:57:44.215Z,14.97
2019-01-19T14:00:38.690Z,16.97
2019-01-19T14:03:22.269Z,12.67
2019-01-19T14:06:22.604Z,17.17
2019-01-19T14:09:12.288Z,17.43
2019-01-19T14:12:00.325Z,15.93
2019-01-19T14:14:52.992Z,20.30
2019-01-19T14:17:40.975Z,13.37
2019-01-19T14:20:21.230Z,12.77
2019-01-19T14:23:15.181Z,13.20
2019-01-19T14:25:59.000Z,13.40
2019-01-19T14:28:39.933Z,13.40
2019-01-19T14:31:20.352Z,14.70
2019-01-19T14:33:57.680Z,12.53
2019-01-19T14:36:38.790Z,13.63
2019-01-19T14:39:13.315Z,17.27
2019-01-19T14:42:06.402Z,19.77
2019-01-19T14:44:37.918Z,13.53
2019-01-19T14:47:24.665Z,14.80
2019-01-19T14:50:29.736Z,15.30
2019-01-19T14:53:13.262Z,24.13
2019-01-19T14:56:06.825Z,11.00
2019-01-19T14:58:59.760Z,9.30
2019-01-19T15:01:57.062Z,12.80
2019-01-19T15:04:37.395Z,12.87
2019-01-19T15:07:08.909Z,16.20
2019-01-19T15:09:56.981Z,16.80
2019-01-19T15:12:28.509Z,22.00
2019-01-19T15:15:12.011Z,24.57
2019-01-19T15:17:55.814Z,31.47
2019-01-19T15:20:39.670Z,31.33
2019-01-19T15:23:11.196Z,29.47
2019-01-19T15:25:57.934Z,32.33
2019-01-19T15:28:39.292Z,28.17
2019-01-19T15:31:27.580Z,25.45
2019-01-19T15:34:23.114Z,25.77
2019-01-19T15:36:57.493Z,25.20
2019-01-19T15:39:44.271Z,31.60
2019-01-19T15:42:31.298Z,38.20
2019-01-19T15:45:19.355Z,66.47
2019-01-19T15:48:01.704Z,90.40
2019-01-19T15:50:39.138Z,148.37
2019-01-19T15:53:19.553Z,105.53
2019-01-19T15:56:09.299Z,76.67
2019-01-19T15:58:46.591Z,61.30
2019-01-19T16:01:33.196Z,49.73
2019-01-19T16:04:13.560Z,51.93
2019-01-19T16:06:54.122Z,44.88
2019-01-19T16:09:25.712Z,48.03
2019-01-19T16:12:00.251Z,48.97
2019-01-19T16:14:31.891Z,47.80
2019-01-19T16:17:09.308Z,49.93
2019-01-19T16:19:40.891Z,54.30
2019-01-19T16:22:33.362Z,56.20
2019-01-19T16:25:26.513Z,54.88
2019-01-19T16:27:58.039Z,57.20
2019-01-19T16:30:46.714Z,53.93
2019-01-19T16:33:33.245Z,58.80
2019-01-19T16:36:21.016Z,60.40
2019-01-19T16:38:58.398Z,64.62
2019-01-19T16:41:39.288Z,63.13
2019-01-19T16:44:16.908Z,58.05
2019-01-19T16:47:06.673Z,54.58
2019-01-19T16:49:43.953Z,58.83
2019-01-19T16:52:27.328Z,61.53
2019-01-19T16:55:11.042Z,62.93
2019-01-19T16:57:57.983Z,68.90
2019-01-19T17:00:49.506Z,66.50
2019-01-19T17:03:21.109Z,75.20
2019-01-19T17:06:01.666Z,77.62
2019-01-19T17:08:39.047Z,83.65
2019-01-19T17:11:16.698Z,69.93
2019-01-19T17:14:02.707Z,69.97
2019-01-19T17:16:49.475Z,63.75
2019-01-19T17:19:39.100Z,66.02
2019-01-19T17:22:19.701Z,60.87
2019-01-19T17:25:15.073Z,68.83
2019-01-19T17:27:55.376Z,64.03
2019-01-19T17:30:29.460Z,64.20
2019-01-19T17:33:17.673Z,59.18
2019-01-19T17:35:49.281Z,63.38
2019-01-19T17:38:35.699Z,62.53
2019-01-19T17:41:26.699Z,68.23
2019-01-19T17:44:04.217Z,70.15
2019-01-19T17:46:38.377Z,65.30
2019-01-19T17:49:24.824Z,68.80
2019-01-19T17:51:59.340Z,61.07
2019-01-19T17:54:30.883Z,65.10
2019-01-19T17:57:08.541Z,65.03
2019-01-19T18:00:01.574Z,67.62
2019-01-19T18:02:54.451Z,66.07
2019-01-19T18:05:47.167Z,77.25
2019-01-19T18:08:38.204Z,83.70
2019-01-19T18:11:15.699Z,85.30
2019-01-19T18:14:08.533Z,82.17
2019-01-19T18:16:45.845Z,76.77
2019-01-19T18:19:23.030Z,78.70
2019-01-19T18:22:06.493Z,80.30
2019-01-19T18:24:47.032Z,91.82
2019-01-19T18:27:36.993Z,90.85
2019-01-19T18:30:31.459Z,82.47
2019-01-19T18:33:22.856Z,77.87
2019-01-19T18:36:13.656Z,71.33
2019-01-19T18:39:08.502Z,70.17
2019-01-19T18:41:40.201Z,68.83
2019-01-19T18:44:46.689Z,73.37
2019-01-19T18:47:26.499Z,66.22
2019-01-19T18:50:23.492Z,71.53
2019-01-19T18:53:07.129Z,70.78
2019-01-19T18:55:44.686Z,72.85
2019-01-19T18:58:22.674Z,85.05
2019-01-19T19:01:06.226Z,88.83
2019-01-19T19:03:58.329Z,113.47
2019-01-19T19:06:35.848Z,109.78
2019-01-19T19:09:27.107Z,85.40
2019-01-19T19:12:15.405Z,80.27
2019-01-19T19:14:56.019Z,105.63
2019-01-19T19:17:30.676Z,222.80
2019-01-19T19:20:23.519Z,178.82
2019-01-19T19:23:17.865Z,106.97
2019-01-19T19:25:49.476Z,95.57
2019-01-19T19:28:29.880Z,97.00
2019-01-19T19:31:04.537Z,90.17
2019-01-19T19:33:42.170Z,87.55
2019-01-19T19:36:19.546Z,101.82
2019-01-19T19:39:00.549Z,131.80
2019-01-19T19:41:44.240Z,120.80
2019-01-19T19:44:18.621Z,105.80
2019-01-19T19:46:52.986Z,96.17
2019-01-19T19:49:33.515Z,85.35
2019-01-19T19:52:03.062Z,78.85
2019-01-19T19:54:32.898Z,79.35
2019-01-19T19:57:01.728Z,83.07
2019-01-19T19:59:30.292Z,80.87
2019-01-19T20:01:58.939Z,76.77
2019-01-19T20:04:27.968Z,78.72
2019-01-19T20:06:56.595Z,74.58
2019-01-19T20:09:25.236Z,75.70
2019-01-19T20:11:56.672Z,76.13
2019-01-19T20:14:25.210Z,84.62
2019-01-19T20:16:53.895Z,80.22
2019-01-19T20:19:22.448Z,75.12
2019-01-19T20:21:51.087Z,77.67
2019-01-19T20:24:19.839Z,69.42
2019-01-19T20:26:48.389Z,72.72
2019-01-19T20:29:17.004Z,73.05
2019-01-19T20:31:45.475Z,64.97
2019-01-19T20:34:13.969Z,68.83
2019-01-19T20:36:43.653Z,66.62
2019-01-19T20:39:12.480Z,69.25
2019-01-19T20:41:41.879Z,57.23
2019-01-19T20:44:10.542Z,59.83
2019-01-19T20:46:39.283Z,59.53
2019-01-19T20:49:07.848Z,61.48
2019-01-19T20:51:36.515Z,60.13
2019-01-19T20:54:05.149Z,56.20
2019-01-19T20:56:33.631Z,60.92
2019-01-19T20:59:03.235Z,62.73
2019-01-19T21:01:31.799Z,61.83
2019-01-19T21:04:00.289Z,61.85
2019-01-19T21:06:29.983Z,62.13
2019-01-19T21:08:58.553Z,60.55
2019-01-19T21:11:27.169Z,66.77
2019-01-19T21:13:55.780Z,60.20
2019-01-19T21:16:24.260Z,64.32
2019-01-19T21:18:52.760Z,59.50
2019-01-19T21:21:21.432Z,59.67
2019-01-19T21:23:49.926Z,56.40
2019-01-19T21:26:18.617Z,61.25
2019-01-19T21:28:48.150Z,59.38
2019-01-19T21:31:16.631Z,64.45
2019-01-19T21:33:45.112Z,67.08
2019-01-19T21:36:13.728Z,64.65
2019-01-19T21:38:42.220Z,65.30
2019-01-19T21:41:10.700Z,58.97
2019-01-19T21:43:43.232Z,66.35
2019-01-19T21:46:11.752Z,61.98
2019-01-19T21:48:40.310Z,61.30
2019-01-19T21:51:09.728Z,67.60
2019-01-19T21:53:38.226Z,67.17
2019-01-19T21:56:06.767Z,58.73
2019-01-19T21:58:35.430Z,65.28
2019-01-19T22:01:04.045Z,61.67
2019-01-19T22:03:32.640Z,64.40
2019-01-19T22:06:01.277Z,65.45
2019-01-19T22:08:29.770Z,63.83
2019-01-19T22:10:58.416Z,60.70
2019-01-19T22:13:26.956Z,65.47
2019-01-19T22:15:55.492Z,67.35
2019-01-19T22:18:23.974Z,67.95
2019-01-19T22:20:52.606Z,72.20
2019-01-19T22:23:23.134Z,77.15
2019-01-19T22:25:51.681Z,76.72
2019-01-19T22:28:20.283Z,68.42
2019-01-19T22:30:48.762Z,67.97
2019-01-19T22:33:17.637Z,72.70
2019-01-19T22:35:46.253Z,70.12
2019-01-19T22:38:14.747Z,72.15
2019-01-19T22:40:43.297Z,77.40
2019-01-19T22:43:12.115Z,77.40
2019-01-19T22:45:41.554Z,73.20
2019-01-19T22:48:10.208Z,75.42
2019-01-19T22:50:39.257Z,82.33
2019-01-19T22:53:07.737Z,75.28
2019-01-19T22:55:36.250Z,77.92
2019-01-19T22:58:04.938Z,74.45
2019-01-19T23:00:59.545Z,79.20
2019-01-19T23:03:29.642Z,86.08
2019-01-19T23:05:58.194Z,85.87
2019-01-19T23:08:26.750Z,86.20
2019-01-19T23:11:01.078Z,74.87
2019-01-19T23:13:25.546Z,78.28
2019-01-19T23:15:54.107Z,84.10
2019-01-19T23:18:22.676Z,78.45
2019-01-19T23:20:51.220Z,91.37
2019-01-19T23:23:20.719Z,84.77
2019-01-19T23:25:49.266Z,93.80
2019-01-19T23:28:17.835Z,89.97
2019-01-19T23:30:46.461Z,81.50
2019-01-19T23:33:15.079Z,85.03
2019-01-19T23:35:43.644Z,82.35
2019-01-19T23:38:12.149Z,82.05
2019-01-19T23:40:40.763Z,83.47
2019-01-19T23:43:09.303Z,83.33
2019-01-19T23:45:39.748Z,87.00
2019-01-19T23:48:09.325Z,87.33
2019-01-19T23:50:37.823Z,87.60
2019-01-19T23:53:06.477Z,89.87
2019-01-19T23:55:35.019Z,87.88
2019-01-19T23:58:03.504Z,94.58
